<?xml version="1.0" encoding="UTF-8" standalone="no" ?>
<gpx xmlns="http://www.topografix.com/GPX/1/1" xmlns:xsi="http://www.w3.org/2001/XMLSchema-instance" xsi:schemaLocation="http://www.topografix.com/GPX/1/1 http://www.topografix.com/GPX/1/1/gpx.xsd" version="1.1" creator="VisuGPX - https://www.visugpx.com">
  <metadata>
    <name>StCongard_MalestroitCanal_21km</name>
    <desc><![CDATA[gnerando idor:8157563_8308312]]></desc>
  </metadata>
  <trk>
    <name><![CDATA[Malestroit_Canal_21.4km-8157563]]></name>
    <extensions>
      <line xmlns="http://www.topografix.com/GPX/gpx_style/0/2">
        <color>0000FF</color>
        <width>4</width>
      </line>
    </extensions>
    <trkseg>
      <trkpt lat="47.7708" lon="-2.31751">
        <ele>19</ele>
        <time>2023-11-12T16:04:57Z</time>
      </trkpt>
      <trkpt lat="47.7706" lon="-2.31588">
        <ele>11</ele>
        <time>2023-11-12T16:07:26Z</time>
      </trkpt>
      <trkpt lat="47.77818" lon="-2.31438">
        <ele>10</ele>
        <time>2023-11-12T16:24:26Z</time>
      </trkpt>
      <trkpt lat="47.78109" lon="-2.31631">
        <ele>9</ele>
        <time>2023-11-12T16:31:31Z</time>
      </trkpt>
      <trkpt lat="47.78369" lon="-2.31734">
        <ele>11</ele>
        <time>2023-11-12T16:37:30Z</time>
      </trkpt>
      <trkpt lat="47.78562" lon="-2.31858">
        <ele>11</ele>
        <time>2023-11-12T16:42:11Z</time>
      </trkpt>
      <trkpt lat="47.78502" lon="-2.3206">
        <ele>31</ele>
        <time>2023-11-12T16:45:29Z</time>
      </trkpt>
      <trkpt lat="47.78334" lon="-2.32339">
        <ele>53</ele>
        <time>2023-11-12T16:51:05Z</time>
      </trkpt>
      <trkpt lat="47.78271" lon="-2.32313">
        <ele>53</ele>
        <time>2023-11-12T16:52:32Z</time>
      </trkpt>
      <trkpt lat="47.78248" lon="-2.32399">
        <ele>56</ele>
        <time>2023-11-12T16:53:55Z</time>
      </trkpt>
      <trkpt lat="47.78257" lon="-2.32622">
        <ele>67</ele>
        <time>2023-11-12T16:57:15Z</time>
      </trkpt>
      <trkpt lat="47.78415" lon="-2.32708">
        <ele>77</ele>
        <time>2023-11-12T17:01:00Z</time>
      </trkpt>
      <trkpt lat="47.78479" lon="-2.32665">
        <ele>74</ele>
        <time>2023-11-12T17:02:33Z</time>
      </trkpt>
      <trkpt lat="47.78637" lon="-2.32738">
        <ele>67</ele>
        <time>2023-11-12T17:06:14Z</time>
      </trkpt>
      <trkpt lat="47.78738" lon="-2.32798">
        <ele>70</ele>
        <time>2023-11-12T17:08:39Z</time>
      </trkpt>
      <trkpt lat="47.78911" lon="-2.33202">
        <ele>63</ele>
        <time>2023-11-12T17:15:49Z</time>
      </trkpt>
      <trkpt lat="47.79075" lon="-2.3324">
        <ele>56</ele>
        <time>2023-11-12T17:19:30Z</time>
      </trkpt>
      <trkpt lat="47.79096" lon="-2.33176">
        <ele>54</ele>
        <time>2023-11-12T17:20:34Z</time>
      </trkpt>
      <trkpt lat="47.79148" lon="-2.33146">
        <ele>50</ele>
        <time>2023-11-12T17:21:49Z</time>
      </trkpt>
      <trkpt lat="47.7915" lon="-2.33305">
        <ele>56</ele>
        <time>2023-11-12T17:24:11Z</time>
      </trkpt>
      <trkpt lat="47.79024" lon="-2.33614">
        <ele>60</ele>
        <time>2023-11-12T17:29:35Z</time>
      </trkpt>
      <trkpt lat="47.79032" lon="-2.33927">
        <ele>50</ele>
        <time>2023-11-12T17:34:16Z</time>
      </trkpt>
      <trkpt lat="47.79093" lon="-2.34047">
        <ele>42</ele>
        <time>2023-11-12T17:36:31Z</time>
      </trkpt>
      <trkpt lat="47.79194" lon="-2.34034">
        <ele>40</ele>
        <time>2023-11-12T17:38:46Z</time>
      </trkpt>
      <trkpt lat="47.79179" lon="-2.34111">
        <ele>42</ele>
        <time>2023-11-12T17:39:58Z</time>
      </trkpt>
      <trkpt lat="47.79254" lon="-2.34236">
        <ele>46</ele>
        <time>2023-11-12T17:42:28Z</time>
      </trkpt>
      <trkpt lat="47.79566" lon="-2.34566">
        <ele>65</ele>
        <time>2023-11-12T17:50:59Z</time>
      </trkpt>
      <trkpt lat="47.79914" lon="-2.34541">
        <ele>91</ele>
        <time>2023-11-12T17:58:44Z</time>
      </trkpt>
      <trkpt lat="47.799" lon="-2.35373">
        <ele>102</ele>
        <time>2023-11-12T18:11:10Z</time>
      </trkpt>
      <trkpt lat="47.79943" lon="-2.35596">
        <ele>102</ele>
        <time>2023-11-12T18:14:38Z</time>
      </trkpt>
      <trkpt lat="47.79782" lon="-2.36339">
        <ele>91</ele>
        <time>2023-11-12T18:26:18Z</time>
      </trkpt>
      <trkpt lat="47.79721" lon="-2.36601">
        <ele>89</ele>
        <time>2023-11-12T18:30:27Z</time>
      </trkpt>
      <trkpt lat="47.80312" lon="-2.38107">
        <ele>56</ele>
        <time>2023-11-12T18:56:30Z</time>
      </trkpt>
      <trkpt lat="47.80592" lon="-2.38038">
        <ele>19</ele>
        <time>2023-11-12T19:02:49Z</time>
      </trkpt>
      <trkpt lat="47.80837" lon="-2.38146">
        <ele>18</ele>
        <time>2023-11-12T19:08:30Z</time>
      </trkpt>
      <trkpt lat="47.80949" lon="-2.38098">
        <ele>17</ele>
        <time>2023-11-12T19:11:05Z</time>
      </trkpt>
      <trkpt lat="47.81197" lon="-2.38347">
        <ele>15</ele>
        <time>2023-11-12T19:17:44Z</time>
      </trkpt>
      <trkpt lat="47.81978" lon="-2.39326">
        <ele>19</ele>
        <time>2023-11-12T19:40:27Z</time>
      </trkpt>
      <trkpt lat="47.8186" lon="-2.39467">
        <ele>18</ele>
        <time>2023-11-12T19:43:49Z</time>
      </trkpt>
      <trkpt lat="47.81805" lon="-2.39665">
        <ele>17</ele>
        <time>2023-11-12T19:47:01Z</time>
      </trkpt>
      <trkpt lat="47.81652" lon="-2.39708">
        <ele>22</ele>
        <time>2023-11-12T19:50:28Z</time>
      </trkpt>
      <trkpt lat="47.81592" lon="-2.39776">
        <ele>25</ele>
        <time>2023-11-12T19:52:09Z</time>
      </trkpt>
      <trkpt lat="47.81615" lon="-2.39974">
        <ele>26</ele>
        <time>2023-11-12T19:55:09Z</time>
      </trkpt>
      <trkpt lat="47.81638" lon="-2.40175">
        <ele>28</ele>
        <time>2023-11-12T19:58:12Z</time>
      </trkpt>
      <trkpt lat="47.81696" lon="-2.40317">
        <ele>33</ele>
        <time>2023-11-12T20:00:41Z</time>
      </trkpt>
      <trkpt lat="47.8167" lon="-2.40502">
        <ele>49</ele>
        <time>2023-11-12T20:03:30Z</time>
      </trkpt>
      <trkpt lat="47.81739" lon="-2.40592">
        <ele>53</ele>
        <time>2023-11-12T20:05:32Z</time>
      </trkpt>
      <trkpt lat="47.81992" lon="-2.41617">
        <ele>36</ele>
        <time>2023-11-12T20:21:51Z</time>
      </trkpt>
      <trkpt lat="47.81869" lon="-2.41991">
        <ele>59</ele>
        <time>2023-11-12T20:28:04Z</time>
      </trkpt>
      <trkpt lat="47.81903" lon="-2.4221">
        <ele>69</ele>
        <time>2023-11-12T20:31:26Z</time>
      </trkpt>
      <trkpt lat="47.82079" lon="-2.42424">
        <ele>64</ele>
        <time>2023-11-12T20:36:29Z</time>
      </trkpt>
      <trkpt lat="47.82237" lon="-2.42549">
        <ele>68</ele>
        <time>2023-11-12T20:40:28Z</time>
      </trkpt>
      <trkpt lat="47.82217" lon="-2.42892">
        <ele>60</ele>
        <time>2023-11-12T20:45:36Z</time>
      </trkpt>
      <trkpt lat="47.82442" lon="-2.42862">
        <ele>44</ele>
        <time>2023-11-12T20:50:38Z</time>
      </trkpt>
      <trkpt lat="47.82621" lon="-2.42952">
        <ele>42</ele>
        <time>2023-11-12T20:54:50Z</time>
      </trkpt>
      <trkpt lat="47.82612" lon="-2.43428">
        <ele>49</ele>
        <time>2023-11-12T21:01:56Z</time>
      </trkpt>
      <trkpt lat="47.8286" lon="-2.43484">
        <ele>39</ele>
        <time>2023-11-12T21:07:31Z</time>
      </trkpt>
      <trkpt lat="47.82883" lon="-2.44003">
        <ele>32</ele>
        <time>2023-11-12T21:15:17Z</time>
      </trkpt>
      <trkpt lat="47.83024" lon="-2.43991">
        <ele>32</ele>
        <time>2023-11-12T21:18:25Z</time>
      </trkpt>
      <trkpt lat="47.83073" lon="-2.44128">
        <ele>38</ele>
        <time>2023-11-12T21:20:44Z</time>
      </trkpt>
      <trkpt lat="47.83165" lon="-2.44192">
        <ele>35</ele>
        <time>2023-11-12T21:23:00Z</time>
      </trkpt>
      <trkpt lat="47.83358" lon="-2.44231">
        <ele>32</ele>
        <time>2023-11-12T21:27:20Z</time>
      </trkpt>
      <trkpt lat="47.83352" lon="-2.44312">
        <ele>32</ele>
        <time>2023-11-12T21:28:33Z</time>
      </trkpt>
      <trkpt lat="47.83401" lon="-2.44338">
        <ele>37</ele>
        <time>2023-11-12T21:29:42Z</time>
      </trkpt>
      <trkpt lat="47.83393" lon="-2.44214">
        <ele>37</ele>
        <time>2023-11-12T21:31:34Z</time>
      </trkpt>
      <trkpt lat="47.83462" lon="-2.44012">
        <ele>44</ele>
        <time>2023-11-12T21:34:57Z</time>
      </trkpt>
      <trkpt lat="47.83422" lon="-2.43875">
        <ele>39</ele>
        <time>2023-11-12T21:37:11Z</time>
      </trkpt>
      <trkpt lat="47.83324" lon="-2.43836">
        <ele>28</ele>
        <time>2023-11-12T21:39:26Z</time>
      </trkpt>
      <trkpt lat="47.83283" lon="-2.43656">
        <ele>21</ele>
        <time>2023-11-12T21:42:16Z</time>
      </trkpt>
      <trkpt lat="47.83473" lon="-2.43686">
        <ele>25</ele>
        <time>2023-11-12T21:46:31Z</time>
      </trkpt>
      <trkpt lat="47.83701" lon="-2.43587">
        <ele>19</ele>
        <time>2023-11-12T21:51:48Z</time>
      </trkpt>
      <trkpt lat="47.83666" lon="-2.43132">
        <ele>16</ele>
        <time>2023-11-12T21:58:39Z</time>
      </trkpt>
      <trkpt lat="47.83813" lon="-2.43261">
        <ele>19</ele>
        <time>2023-11-12T22:02:26Z</time>
      </trkpt>
      <trkpt lat="47.83954" lon="-2.43188">
        <ele>20</ele>
        <time>2023-11-12T22:05:45Z</time>
      </trkpt>
      <trkpt lat="47.83966" lon="-2.4342">
        <ele>17</ele>
        <time>2023-11-12T22:09:14Z</time>
      </trkpt>
      <trkpt lat="47.84136" lon="-2.43716">
        <ele>17</ele>
        <time>2023-11-12T22:15:03Z</time>
      </trkpt>
      <trkpt lat="47.84412" lon="-2.44167">
        <ele>21</ele>
        <time>2023-11-12T22:24:09Z</time>
      </trkpt>
      <trkpt lat="47.84715" lon="-2.44295">
        <ele>17</ele>
        <time>2023-11-12T22:31:10Z</time>
      </trkpt>
      <trkpt lat="47.84865" lon="-2.44476">
        <ele>18</ele>
        <time>2023-11-12T22:35:27Z</time>
      </trkpt>
      <trkpt lat="47.8513" lon="-2.44604">
        <ele>24</ele>
        <time>2023-11-12T22:41:39Z</time>
      </trkpt>
      <trkpt lat="47.85299" lon="-2.44656">
        <ele>24</ele>
        <time>2023-11-12T22:45:29Z</time>
      </trkpt>
      <trkpt lat="47.85562" lon="-2.44617">
        <ele>24</ele>
        <time>2023-11-12T22:51:22Z</time>
      </trkpt>
      <trkpt lat="47.85763" lon="-2.44677">
        <ele>22</ele>
        <time>2023-11-12T22:55:56Z</time>
      </trkpt>
      <trkpt lat="47.8595" lon="-2.44673">
        <ele>24</ele>
        <time>2023-11-12T23:00:05Z</time>
      </trkpt>
      <trkpt lat="47.8614" lon="-2.44557">
        <ele>21</ele>
        <time>2023-11-12T23:04:39Z</time>
      </trkpt>
      <trkpt lat="47.86497" lon="-2.44621">
        <ele>29</ele>
        <time>2023-11-12T23:12:39Z</time>
      </trkpt>
    </trkseg>
  </trk>
  <trk>
    <name><![CDATA[StCongard_AutourTronçonnais_21.4km-8308312]]></name>
    <extensions>
      <line xmlns="http://www.topografix.com/GPX/gpx_style/0/2">
        <color>00FF00</color>
        <width>4</width>
      </line>
    </extensions>
    <trkseg>
      <trkpt lat="47.77063" lon="-2.31754">
        <ele>19</ele>
        <time>2023-11-12T16:04:44Z</time>
      </trkpt>
      <trkpt lat="47.76995" lon="-2.31761">
        <ele>16</ele>
        <time>2023-11-12T16:06:15Z</time>
      </trkpt>
      <trkpt lat="47.76961" lon="-2.32122">
        <ele>21</ele>
        <time>2023-11-12T16:11:42Z</time>
      </trkpt>
      <trkpt lat="47.76898" lon="-2.32158">
        <ele>21</ele>
        <time>2023-11-12T16:13:12Z</time>
      </trkpt>
      <trkpt lat="47.76878" lon="-2.31934">
        <ele>14</ele>
        <time>2023-11-12T16:16:35Z</time>
      </trkpt>
      <trkpt lat="47.76679" lon="-2.31949">
        <ele>11</ele>
        <time>2023-11-12T16:21:01Z</time>
      </trkpt>
      <trkpt lat="47.76529" lon="-2.32014">
        <ele>9</ele>
        <time>2023-11-12T16:24:29Z</time>
      </trkpt>
      <trkpt lat="47.76325" lon="-2.32006">
        <ele>10</ele>
        <time>2023-11-12T16:29:01Z</time>
      </trkpt>
      <trkpt lat="47.76306" lon="-2.3179">
        <ele>9</ele>
        <time>2023-11-12T16:32:17Z</time>
      </trkpt>
      <trkpt lat="47.76291" lon="-2.31747">
        <ele>8</ele>
        <time>2023-11-12T16:33:00Z</time>
      </trkpt>
      <trkpt lat="47.76024" lon="-2.31653">
        <ele>9</ele>
        <time>2023-11-12T16:39:06Z</time>
      </trkpt>
      <trkpt lat="47.75864" lon="-2.31646">
        <ele>9</ele>
        <time>2023-11-12T16:42:40Z</time>
      </trkpt>
      <trkpt lat="47.75704" lon="-2.3153">
        <ele>8</ele>
        <time>2023-11-12T16:46:37Z</time>
      </trkpt>
      <trkpt lat="47.7569" lon="-2.31436">
        <ele>8</ele>
        <time>2023-11-12T16:48:04Z</time>
      </trkpt>
      <trkpt lat="47.75408" lon="-2.31472">
        <ele>7</ele>
        <time>2023-11-12T16:54:22Z</time>
      </trkpt>
      <trkpt lat="47.75374" lon="-2.31646">
        <ele>9</ele>
        <time>2023-11-12T16:57:04Z</time>
      </trkpt>
      <trkpt lat="47.75102" lon="-2.31379">
        <ele>12</ele>
        <time>2023-11-12T17:04:19Z</time>
      </trkpt>
      <trkpt lat="47.75175" lon="-2.31054">
        <ele>8</ele>
        <time>2023-11-12T17:09:26Z</time>
      </trkpt>
      <trkpt lat="47.75102" lon="-2.31018">
        <ele>9</ele>
        <time>2023-11-12T17:11:09Z</time>
      </trkpt>
      <trkpt lat="47.75034" lon="-2.30996">
        <ele>10</ele>
        <time>2023-11-12T17:12:42Z</time>
      </trkpt>
      <trkpt lat="47.74957" lon="-2.31047">
        <ele>20</ele>
        <time>2023-11-12T17:14:34Z</time>
      </trkpt>
      <trkpt lat="47.74937" lon="-2.30909">
        <ele>20</ele>
        <time>2023-11-12T17:16:41Z</time>
      </trkpt>
      <trkpt lat="47.74685" lon="-2.30029">
        <ele>40</ele>
        <time>2023-11-12T17:30:59Z</time>
      </trkpt>
      <trkpt lat="47.74704" lon="-2.29654">
        <ele>12</ele>
        <time>2023-11-12T17:36:37Z</time>
      </trkpt>
      <trkpt lat="47.75005" lon="-2.29711">
        <ele>8</ele>
        <time>2023-11-12T17:43:22Z</time>
      </trkpt>
      <trkpt lat="47.7502" lon="-2.29502">
        <ele>8</ele>
        <time>2023-11-12T17:46:30Z</time>
      </trkpt>
      <trkpt lat="47.7484" lon="-2.29156">
        <ele>9</ele>
        <time>2023-11-12T17:53:03Z</time>
      </trkpt>
      <trkpt lat="47.74515" lon="-2.28881">
        <ele>16</ele>
        <time>2023-11-12T18:01:22Z</time>
      </trkpt>
      <trkpt lat="47.74379" lon="-2.28362">
        <ele>13</ele>
        <time>2023-11-12T18:09:42Z</time>
      </trkpt>
      <trkpt lat="47.74273" lon="-2.28239">
        <ele>16</ele>
        <time>2023-11-12T18:12:41Z</time>
      </trkpt>
      <trkpt lat="47.74209" lon="-2.28448">
        <ele>30</ele>
        <time>2023-11-12T18:16:07Z</time>
      </trkpt>
      <trkpt lat="47.74151" lon="-2.28809">
        <ele>58</ele>
        <time>2023-11-12T18:21:40Z</time>
      </trkpt>
      <trkpt lat="47.74205" lon="-2.29026">
        <ele>84</ele>
        <time>2023-11-12T18:25:08Z</time>
      </trkpt>
      <trkpt lat="47.74285" lon="-2.29971">
        <ele>79</ele>
        <time>2023-11-12T18:39:23Z</time>
      </trkpt>
      <trkpt lat="47.73957" lon="-2.29856">
        <ele>86</ele>
        <time>2023-11-12T18:46:52Z</time>
      </trkpt>
      <trkpt lat="47.73996" lon="-2.30108">
        <ele>88</ele>
        <time>2023-11-12T18:50:44Z</time>
      </trkpt>
      <trkpt lat="47.73981" lon="-2.30325">
        <ele>87</ele>
        <time>2023-11-12T18:54:00Z</time>
      </trkpt>
      <trkpt lat="47.74137" lon="-2.30231">
        <ele>82</ele>
        <time>2023-11-12T18:57:45Z</time>
      </trkpt>
      <trkpt lat="47.74292" lon="-2.30238">
        <ele>78</ele>
        <time>2023-11-12T19:01:12Z</time>
      </trkpt>
      <trkpt lat="47.74295" lon="-2.30086">
        <ele>75</ele>
        <time>2023-11-12T19:03:28Z</time>
      </trkpt>
      <trkpt lat="47.74503" lon="-2.30162">
        <ele>66</ele>
        <time>2023-11-12T19:08:14Z</time>
      </trkpt>
      <trkpt lat="47.74703" lon="-2.30593">
        <ele>72</ele>
        <time>2023-11-12T19:16:04Z</time>
      </trkpt>
      <trkpt lat="47.7472" lon="-2.30867">
        <ele>76</ele>
        <time>2023-11-12T19:20:11Z</time>
      </trkpt>
      <trkpt lat="47.74594" lon="-2.30848">
        <ele>81</ele>
        <time>2023-11-12T19:23:00Z</time>
      </trkpt>
      <trkpt lat="47.74512" lon="-2.30788">
        <ele>79</ele>
        <time>2023-11-12T19:25:02Z</time>
      </trkpt>
      <trkpt lat="47.7446" lon="-2.3081">
        <ele>77</ele>
        <time>2023-11-12T19:26:14Z</time>
      </trkpt>
      <trkpt lat="47.74565" lon="-2.30962">
        <ele>73</ele>
        <time>2023-11-12T19:29:29Z</time>
      </trkpt>
      <trkpt lat="47.74548" lon="-2.31099">
        <ele>77</ele>
        <time>2023-11-12T19:31:34Z</time>
      </trkpt>
      <trkpt lat="47.74623" lon="-2.3131">
        <ele>76</ele>
        <time>2023-11-12T19:35:09Z</time>
      </trkpt>
      <trkpt lat="47.74713" lon="-2.31589">
        <ele>73</ele>
        <time>2023-11-12T19:39:46Z</time>
      </trkpt>
      <trkpt lat="47.74791" lon="-2.31528">
        <ele>71</ele>
        <time>2023-11-12T19:41:44Z</time>
      </trkpt>
      <trkpt lat="47.74837" lon="-2.31713">
        <ele>74</ele>
        <time>2023-11-12T19:44:41Z</time>
      </trkpt>
      <trkpt lat="47.74946" lon="-2.3191">
        <ele>73</ele>
        <time>2023-11-12T19:48:30Z</time>
      </trkpt>
      <trkpt lat="47.7492" lon="-2.32232">
        <ele>65</ele>
        <time>2023-11-12T19:53:21Z</time>
      </trkpt>
      <trkpt lat="47.75044" lon="-2.32215">
        <ele>60</ele>
        <time>2023-11-12T19:56:07Z</time>
      </trkpt>
      <trkpt lat="47.75088" lon="-2.32159">
        <ele>60</ele>
        <time>2023-11-12T19:57:24Z</time>
      </trkpt>
      <trkpt lat="47.75131" lon="-2.32164">
        <ele>51</ele>
        <time>2023-11-12T19:58:22Z</time>
      </trkpt>
      <trkpt lat="47.7516" lon="-2.32125">
        <ele>44</ele>
        <time>2023-11-12T19:59:14Z</time>
      </trkpt>
      <trkpt lat="47.75209" lon="-2.32185">
        <ele>36</ele>
        <time>2023-11-12T20:00:39Z</time>
      </trkpt>
      <trkpt lat="47.7529" lon="-2.32159">
        <ele>20</ele>
        <time>2023-11-12T20:02:29Z</time>
      </trkpt>
      <trkpt lat="47.75399" lon="-2.32563">
        <ele>27</ele>
        <time>2023-11-12T20:09:00Z</time>
      </trkpt>
      <trkpt lat="47.75362" lon="-2.32593">
        <ele>35</ele>
        <time>2023-11-12T20:09:56Z</time>
      </trkpt>
      <trkpt lat="47.7527" lon="-2.32494">
        <ele>47</ele>
        <time>2023-11-12T20:12:28Z</time>
      </trkpt>
      <trkpt lat="47.75319" lon="-2.32726">
        <ele>56</ele>
        <time>2023-11-12T20:16:06Z</time>
      </trkpt>
      <trkpt lat="47.75226" lon="-2.32627">
        <ele>71</ele>
        <time>2023-11-12T20:18:38Z</time>
      </trkpt>
      <trkpt lat="47.75102" lon="-2.32631">
        <ele>79</ele>
        <time>2023-11-12T20:21:24Z</time>
      </trkpt>
      <trkpt lat="47.75036" lon="-2.32696">
        <ele>79</ele>
        <time>2023-11-12T20:23:09Z</time>
      </trkpt>
      <trkpt lat="47.74885" lon="-2.32691">
        <ele>76</ele>
        <time>2023-11-12T20:26:31Z</time>
      </trkpt>
      <trkpt lat="47.74871" lon="-2.32906">
        <ele>78</ele>
        <time>2023-11-12T20:29:45Z</time>
      </trkpt>
      <trkpt lat="47.74936" lon="-2.32941">
        <ele>79</ele>
        <time>2023-11-12T20:31:17Z</time>
      </trkpt>
      <trkpt lat="47.74874" lon="-2.33248">
        <ele>70</ele>
        <time>2023-11-12T20:36:05Z</time>
      </trkpt>
      <trkpt lat="47.74782" lon="-2.33355">
        <ele>70</ele>
        <time>2023-11-12T20:38:41Z</time>
      </trkpt>
      <trkpt lat="47.74795" lon="-2.33595">
        <ele>70</ele>
        <time>2023-11-12T20:42:17Z</time>
      </trkpt>
      <trkpt lat="47.74857" lon="-2.33748">
        <ele>75</ele>
        <time>2023-11-12T20:44:57Z</time>
      </trkpt>
      <trkpt lat="47.74984" lon="-2.33737">
        <ele>76</ele>
        <time>2023-11-12T20:47:47Z</time>
      </trkpt>
      <trkpt lat="47.75084" lon="-2.33666">
        <ele>71</ele>
        <time>2023-11-12T20:50:15Z</time>
      </trkpt>
      <trkpt lat="47.75303" lon="-2.3364">
        <ele>81</ele>
        <time>2023-11-12T20:55:08Z</time>
      </trkpt>
      <trkpt lat="47.75437" lon="-2.34125">
        <ele>80</ele>
        <time>2023-11-12T21:02:58Z</time>
      </trkpt>
      <trkpt lat="47.75989" lon="-2.33788">
        <ele>23</ele>
        <time>2023-11-12T21:16:14Z</time>
      </trkpt>
      <trkpt lat="47.75989" lon="-2.33707">
        <ele>22</ele>
        <time>2023-11-12T21:17:27Z</time>
      </trkpt>
      <trkpt lat="47.76144" lon="-2.33737">
        <ele>21</ele>
        <time>2023-11-12T21:20:56Z</time>
      </trkpt>
      <trkpt lat="47.76333" lon="-2.3385">
        <ele>18</ele>
        <time>2023-11-12T21:25:27Z</time>
      </trkpt>
      <trkpt lat="47.76343" lon="-2.34013">
        <ele>21</ele>
        <time>2023-11-12T21:27:54Z</time>
      </trkpt>
      <trkpt lat="47.76449" lon="-2.34238">
        <ele>23</ele>
        <time>2023-11-12T21:32:01Z</time>
      </trkpt>
      <trkpt lat="47.76531" lon="-2.34523">
        <ele>22</ele>
        <time>2023-11-12T21:36:39Z</time>
      </trkpt>
      <trkpt lat="47.76562" lon="-2.34717">
        <ele>15</ele>
        <time>2023-11-12T21:39:38Z</time>
      </trkpt>
      <trkpt lat="47.76655" lon="-2.35258">
        <ele>22</ele>
        <time>2023-11-12T21:47:59Z</time>
      </trkpt>
      <trkpt lat="47.76802" lon="-2.35304">
        <ele>24</ele>
        <time>2023-11-12T21:51:19Z</time>
      </trkpt>
      <trkpt lat="47.76888" lon="-2.35325">
        <ele>19</ele>
        <time>2023-11-12T21:53:15Z</time>
      </trkpt>
      <trkpt lat="47.77015" lon="-2.35141">
        <ele>11</ele>
        <time>2023-11-12T21:57:12Z</time>
      </trkpt>
      <trkpt lat="47.77159" lon="-2.34151">
        <ele>24</ele>
        <time>2023-11-12T22:12:20Z</time>
      </trkpt>
      <trkpt lat="47.76799" lon="-2.34278">
        <ele>11</ele>
        <time>2023-11-12T22:20:34Z</time>
      </trkpt>
      <trkpt lat="47.76854" lon="-2.33569">
        <ele>27</ele>
        <time>2023-11-12T22:31:14Z</time>
      </trkpt>
      <trkpt lat="47.77187" lon="-2.33595">
        <ele>38</ele>
        <time>2023-11-12T22:38:39Z</time>
      </trkpt>
      <trkpt lat="47.77231" lon="-2.33406">
        <ele>43</ele>
        <time>2023-11-12T22:41:39Z</time>
      </trkpt>
      <trkpt lat="47.77176" lon="-2.33273">
        <ele>41</ele>
        <time>2023-11-12T22:43:59Z</time>
      </trkpt>
      <trkpt lat="47.77163" lon="-2.32936">
        <ele>57</ele>
        <time>2023-11-12T22:49:01Z</time>
      </trkpt>
      <trkpt lat="47.77279" lon="-2.32911">
        <ele>63</ele>
        <time>2023-11-12T22:51:38Z</time>
      </trkpt>
      <trkpt lat="47.77228" lon="-2.32538">
        <ele>50</ele>
        <time>2023-11-12T22:57:19Z</time>
      </trkpt>
      <trkpt lat="47.77314" lon="-2.32467">
        <ele>55</ele>
        <time>2023-11-12T22:59:30Z</time>
      </trkpt>
      <trkpt lat="47.77353" lon="-2.32359">
        <ele>55</ele>
        <time>2023-11-12T23:01:20Z</time>
      </trkpt>
      <trkpt lat="47.77255" lon="-2.32232">
        <ele>44</ele>
        <time>2023-11-12T23:04:14Z</time>
      </trkpt>
      <trkpt lat="47.77266" lon="-2.3213">
        <ele>48</ele>
        <time>2023-11-12T23:05:47Z</time>
      </trkpt>
      <trkpt lat="47.77262" lon="-2.31987">
        <ele>44</ele>
        <time>2023-11-12T23:07:55Z</time>
      </trkpt>
      <trkpt lat="47.7719" lon="-2.31864">
        <ele>27</ele>
        <time>2023-11-12T23:10:21Z</time>
      </trkpt>
      <trkpt lat="47.7719" lon="-2.31747">
        <ele>20</ele>
        <time>2023-11-12T23:12:06Z</time>
      </trkpt>
      <trkpt lat="47.77132" lon="-2.31711">
        <ele>17</ele>
        <time>2023-11-12T23:13:30Z</time>
      </trkpt>
    </trkseg>
  </trk>
</gpx>